Time;durP1;ratioP1;P1;durP2;ratioP2;P2;SDS_P1;SDS_P2;PMS_P1;PMS_P2;Temp;Humidity;BMP_temperature;BMP_pressure;BME280_temperature;BME280_humidity;BME280_pressure;Samples;Min_cycle;Max_cycle;Signal;HPM_P1;HPM_P2
2022/11/03 00:01:39;;;;;;;6.97;3.42;;;;;;;;;;5016419;28;20048;-78
2022/11/03 00:04:07;;;;;;;6.50;3.30;;;;;;;;;;4999711;28;20045;-77
2022/11/03 00:06:32;;;;;;;7.88;3.38;;;;;;;;;;5011779;28;20094;-78
2022/11/03 00:08:59;;;;;;;8.80;3.55;;;;;;;;;;5019704;28;20037;-78
2022/11/03 00:11:24;;;;;;;6.05;3.17;;;;;;;;;;5033831;28;20050;-78
2022/11/03 00:13:50;;;;;;;8.15;3.35;;;;;;;;;;5019201;28;20494;-79
2022/11/03 00:16:15;;;;;;;7.75;3.78;;;;;;;;;;5015991;28;20067;-79
2022/11/03 00:18:40;;;;;;;5.97;3.47;;;;;;;;;;5026962;28;20029;-79
2022/11/03 00:21:08;;;;;;;8.95;3.33;;;;;;;;;;5020217;28;20585;-78
2022/11/03 00:23:43;;;;;;;;;;;;;;;;;;5032640;28;20098;-78
2022/11/03 00:26:08;;;;;;;6.57;3.35;;;;;;;;;;5027660;28;20295;-78
2022/11/03 00:28:34;;;;;;;7.03;3.50;;;;;;;;;;5038246;28;20041;-78
2022/11/03 00:31:01;;;;;;;9.63;3.55;;;;;;;;;;5021405;28;20033;-79
2022/11/03 00:33:30;;;;;;;9.18;3.47;;;;;;;;;;5033509;28;20492;-78
2022/11/03 00:35:57;;;;;;;5.97;3.45;;;;;;;;;;5026894;28;20435;-80
2022/11/03 00:38:22;;;;;;;7.97;3.53;;;;;;;;;;5034677;28;20064;-78
2022/11/03 00:40:56;;;;;;;7.90;3.40;;;;;;;;;;5021121;28;20033;-78
2022/11/03 00:43:22;;;;;;;5.50;3.10;;;;;;;;;;5021499;28;20094;-79
2022/11/03 00:45:51;;;;;;;6.57;3.00;;;;;;;;;;5019913;28;20045;-78
2022/11/03 00:48:29;;;;;;;6.22;3.13;;;;;;;;;;5037996;28;20483;-78
2022/11/03 00:51:04;;;;;;;;;;;;;;;;;;5037496;28;20427;-78
2022/11/03 00:53:31;;;;;;;7.63;3.05;;;;;;;;;;5023509;28;19917;-78
2022/11/03 00:55:56;;;;;;;4.82;2.97;;;;;;;;;;5022134;28;20041;-78
2022/11/03 00:58:22;;;;;;;6.97;3.20;;;;;;;;;;5019573;28;20041;-78
2022/11/03 01:00:47;;;;;;;5.40;2.88;;;;;;;;;;5048023;28;20032;-78
2022/11/03 01:03:13;;;;;;;7.07;3.08;;;;;;;;;;5024827;28;20500;-78
2022/11/03 01:08:32;;;;;;;5.25;2.70;;;;;;;;;;5054897;28;20079;-78
2022/11/03 01:13:51;;;;;;;7.53;2.90;;;;;;;;;;5037268;28;20036;-79
2022/11/03 01:16:17;;;;;;;4.70;2.55;;;;;;;;;;5026163;28;20048;-82
2022/11/03 01:18:42;;;;;;;5.10;2.58;;;;;;;;;;5029481;28;20037;-79
2022/11/03 01:21:07;;;;;;;6.20;2.80;;;;;;;;;;5021005;28;20051;-80
2022/11/03 01:23:35;;;;;;;8.98;3.00;;;;;;;;;;5031279;28;20036;-80
2022/11/03 01:26:07;;;;;;;6.85;2.42;;;;;;;;;;5030204;28;20041;-77
2022/11/03 01:28:34;;;;;;;5.40;2.90;;;;;;;;;;5031848;28;20108;-78
2022/11/03 01:31:07;;;;;;;5.68;2.78;;;;;;;;;;5034456;28;20036;-78
2022/11/03 01:33:33;;;;;;;6.50;2.72;;;;;;;;;;5031016;28;20392;-78
2022/11/03 01:35:58;;;;;;;9.07;2.83;;;;;;;;;;5030209;28;22049;-78
2022/11/03 01:38:24;;;;;;;5.45;2.50;;;;;;;;;;5023602;28;20040;-78
2022/11/03 01:40:49;;;;;;;4.88;2.17;;;;;;;;;;5034717;28;20076;-78
2022/11/03 01:43:20;;;;;;;5.20;2.42;;;;;;;;;;5021457;28;20128;-78
2022/11/03 01:45:48;;;;;;;7.22;2.70;;;;;;;;;;5046229;28;20047;-78
2022/11/03 01:48:15;;;;;;;5.53;2.42;;;;;;;;;;5036469;28;20086;-78
2022/11/03 01:50:42;;;;;;;6.07;2.65;;;;;;;;;;5023136;28;20515;-78
2022/11/03 01:53:07;;;;;;;5.18;2.17;;;;;;;;;;5022268;28;20060;-79
2022/11/03 01:55:38;;;;;;;7.47;2.22;;;;;;;;;;5023898;28;20115;-78
2022/11/03 01:58:20;;;;;;;6.05;2.33;;;;;;;;;;5017991;28;20536;-78
2022/11/03 02:03:22;;;;;;;5.35;2.13;;;;;;;;;;5725103;23;20049;-79
2022/11/03 02:05:48;;;;;;;7.90;2.00;;;;;;;;;;5007002;28;20064;-79
2022/11/03 02:08:36;;;;;;;5.97;1.70;;;;;;;;;;4998471;28;20045;-79
2022/11/03 02:12:05;;;;;;;4.95;2.03;;;;;;;;;;4981565;28;20500;-78
2022/11/03 02:13:50;;;;;;;5.95;2.08;;;;;;;;;;4999454;28;20487;-79
2022/11/03 02:16:16;;;;;;;6.75;2.22;;;;;;;;;;4982084;28;20042;-78
2022/11/03 02:18:42;;;;;;;6.00;2.08;;;;;;;;;;4983863;28;20536;-78
2022/11/03 02:21:25;;;;;;;5.68;2.25;;;;;;;;;;4982018;28;20034;-79
2022/11/03 02:24:11;;;;;;;5.78;1.85;;;;;;;;;;4981850;28;20041;-79
2022/11/03 02:26:37;;;;;;;7.15;2.22;;;;;;;;;;4995909;28;20062;-79
2022/11/03 02:29:02;;;;;;;4.55;1.85;;;;;;;;;;4991206;28;20060;-79
2022/11/03 02:31:35;;;;;;;5.57;1.90;;;;;;;;;;4989990;28;20128;-79
2022/11/03 02:34:16;;;;;;;4.47;1.90;;;;;;;;;;4986090;28;20366;-79
2022/11/03 02:37:23;;;;;;;4.38;1.90;;;;;;;;;;4989056;28;20129;-80
2022/11/03 02:39:57;;;;;;;8.00;2.30;;;;;;;;;;4887274;29;20040;-80
2022/11/03 02:42:23;;;;;;;4.13;1.80;;;;;;;;;;4891099;29;20047;-80
2022/11/03 02:44:50;;;;;;;4.85;2.00;;;;;;;;;;4891058;29;20040;-80
2022/11/03 02:47:16;;;;;;;6.53;1.95;;;;;;;;;;4875357;29;20081;-80
2022/11/03 02:49:49;;;;;;;6.45;1.83;;;;;;;;;;4875513;29;20060;-79
2022/11/03 02:52:51;;;;;;;5.90;1.92;;;;;;;;;;4875569;29;20496;-80
2022/11/03 02:55:33;;;;;;;4.32;1.67;;;;;;;;;;4843866;29;20060;-80
2022/11/03 02:58:32;;;;;;;4.72;1.95;;;;;;;;;;4900666;29;20044;-79
2022/11/03 03:01:13;;;;;;;5.25;2.00;;;;;;;;;;4924608;29;20479;-80
2022/11/03 03:03:53;;;;;;;6.22;1.88;;;;;;;;;;4901993;29;20523;-78
2022/11/03 03:06:42;;;;;;;5.55;1.90;;;;;;;;;;4911153;29;20040;-80
2022/11/03 03:09:15;;;;;;;9.18;2.08;;;;;;;;;;4893926;29;20043;-79
2022/11/03 03:11:42;;;;;;;8.05;2.00;;;;;;;;;;4972855;28;20132;-80
2022/11/03 03:14:13;;;;;;;5.25;2.35;;;;;;;;;;4977142;28;20038;-80
2022/11/03 03:16:52;;;;;;;5.38;2.13;;;;;;;;;;4985877;28;20064;-79
2022/11/03 03:19:44;;;;;;;3.63;1.95;;;;;;;;;;4968353;28;20089;-79
2022/11/03 03:22:20;;;;;;;5.50;2.00;;;;;;;;;;4988532;28;20034;-81
2022/11/03 03:25:16;;;;;;;4.05;2.05;;;;;;;;;;4994034;28;20034;-81
2022/11/03 03:27:45;;;;;;;7.15;2.38;;;;;;;;;;4928786;28;20452;-80
2022/11/03 03:30:11;;;;;;;7.93;2.42;;;;;;;;;;4978060;28;20034;-80
2022/11/03 03:32:39;;;;;;;9.10;2.33;;;;;;;;;;4986674;28;20034;-80
2022/11/03 03:35:07;;;;;;;3.67;1.95;;;;;;;;;;4985225;28;20575;-79
2022/11/03 03:37:38;;;;;;;5.65;2.45;;;;;;;;;;4961378;28;20035;-80
2022/11/03 03:40:07;;;;;;;5.03;1.80;;;;;;;;;;4945519;28;20110;-79
2022/11/03 03:42:35;;;;;;;6.63;2.83;;;;;;;;;;4980619;28;20377;-78
2022/11/03 03:45:00;;;;;;;;;;;;;;;;;;4970571;28;20034;-79
2022/11/03 03:47:30;;;;;;;4.50;1.73;;;;;;;;;;4985741;28;19924;-79
2022/11/03 03:49:56;;;;;;;4.75;1.95;;;;;;;;;;4969393;28;20297;-81
2022/11/03 03:52:22;;;;;;;5.80;2.08;;;;;;;;;;4977728;28;20508;-79
2022/11/03 03:54:48;;;;;;;5.90;2.30;;;;;;;;;;4969664;28;20042;-79
2022/11/03 03:57:15;;;;;;;4.75;1.85;;;;;;;;;;4968614;28;20038;-84
2022/11/03 03:59:43;;;;;;;7.93;2.72;;;;;;;;;;4993324;28;20435;-84
2022/11/03 04:02:09;;;;;;;5.97;2.25;;;;;;;;;;4964285;28;20041;-84
2022/11/03 04:04:35;;;;;;;8.85;2.10;;;;;;;;;;4962302;28;20045;-85
2022/11/03 04:09:44;;;;;;;4.85;1.92;;;;;;;;;;4974129;28;20056;-84
2022/11/03 04:23:10;;;;;;;5.35;2.22;;;;;;;;;;4983437;28;20105;-85
2022/11/03 04:25:35;;;;;;;4.40;1.98;;;;;;;;;;4977044;28;20523;-85
2022/11/03 04:28:04;;;;;;;5.68;2.25;;;;;;;;;;4972954;28;20038;-85
2022/11/03 04:30:29;;;;;;;5.13;1.95;;;;;;;;;;4966908;28;20103;-84
2022/11/03 04:32:54;;;;;;;3.88;1.95;;;;;;;;;;4989917;28;20041;-84
2022/11/03 04:35:23;;;;;;;6.85;2.28;;;;;;;;;;4978839;28;20125;-84
2022/11/03 04:38:07;;;;;;;6.03;2.20;;;;;;;;;;4967322;28;20038;-85
2022/11/03 04:40:33;;;;;;;4.40;2.00;;;;;;;;;;4973933;28;20057;-85
2022/11/03 04:42:58;;;;;;;6.72;2.40;;;;;;;;;;4972498;28;20138;-85
2022/11/03 04:45:32;;;;;;;5.07;2.10;;;;;;;;;;4962794;28;20061;-84
2022/11/03 04:48:00;;;;;;;5.28;2.15;;;;;;;;;;4998534;28;20041;-83
2022/11/03 04:50:26;;;;;;;5.10;2.00;;;;;;;;;;4970847;28;20065;-84
2022/11/03 04:52:56;;;;;;;4.22;2.00;;;;;;;;;;4962876;28;20076;-84
2022/11/03 04:55:25;;;;;;;5.78;2.20;;;;;;;;;;4978315;28;20121;-84
2022/11/03 04:57:57;;;;;;;5.35;1.88;;;;;;;;;;4973005;28;20116;-84
2022/11/03 05:00:22;;;;;;;5.55;2.00;;;;;;;;;;4963591;28;20500;-84
2022/11/03 05:02:49;;;;;;;7.75;2.50;;;;;;;;;;4998357;28;20034;-84
2022/11/03 05:05:20;;;;;;;6.93;2.23;;;;;;;;;;4989385;28;20038;-85
2022/11/03 05:07:47;;;;;;;4.95;1.80;;;;;;;;;;4962060;28;20047;-87
2022/11/03 05:10:18;;;;;;;6.40;2.35;;;;;;;;;;4978791;28;20130;-84
2022/11/03 05:12:45;;;;;;;5.20;2.08;;;;;;;;;;4995293;28;20035;-84
2022/11/03 05:15:27;;;;;;;8.60;2.53;;;;;;;;;;4979219;28;20123;-84
2022/11/03 05:17:53;;;;;;;6.43;2.40;;;;;;;;;;4984170;28;20140;-84
2022/11/03 05:20:58;;;;;;;5.93;2.25;;;;;;;;;;4988410;28;20060;-84
2022/11/03 05:23:24;;;;;;;6.65;2.80;;;;;;;;;;4979147;28;20038;-85
2022/11/03 05:25:52;;;;;;;7.70;2.67;;;;;;;;;;4977004;28;20088;-84
2022/11/03 05:28:33;;;;;;;6.57;2.67;;;;;;;;;;4999712;28;20037;-84
2022/11/03 05:30:59;;;;;;;5.55;2.70;;;;;;;;;;4964719;28;20065;-84
2022/11/03 05:33:35;;;;;;;5.88;2.75;;;;;;;;;;4979757;28;20038;-85
2022/11/03 05:36:04;;;;;;;5.00;2.25;;;;;;;;;;4979914;28;20118;-84
2022/11/03 05:38:30;;;;;;;6.38;2.80;;;;;;;;;;4982692;28;21057;-85
2022/11/03 05:40:56;;;;;;;6.75;2.60;;;;;;;;;;4972443;28;20055;-85
2022/11/03 05:43:21;;;;;;;5.18;2.92;;;;;;;;;;4988173;28;20416;-84
2022/11/03 05:45:50;;;;;;;6.13;2.63;;;;;;;;;;4979855;28;20117;-84
2022/11/03 05:48:18;;;;;;;4.90;2.83;;;;;;;;;;4984054;28;20044;-84
2022/11/03 05:50:43;;;;;;;6.38;3.03;;;;;;;;;;4977571;28;20137;-84
2022/11/03 05:53:26;;;;;;;11.05;3.38;;;;;;;;;;4966390;28;20759;-84
2022/11/03 05:55:52;;;;;;;6.63;2.92;;;;;;;;;;4988985;28;20512;-85
2022/11/03 05:58:34;;;;;;;7.38;3.15;;;;;;;;;;4994636;28;20049;-84
2022/11/03 06:01:01;;;;;;;5.05;2.90;;;;;;;;;;4966292;28;20034;-84
2022/11/03 06:03:29;;;;;;;6.43;3.50;;;;;;;;;;4971254;28;20167;-84
2022/11/03 06:05:55;;;;;;;6.15;3.35;;;;;;;;;;4987353;28;20026;-83
2022/11/03 06:08:23;;;;;;;6.50;3.22;;;;;;;;;;4977075;28;20034;-82
2022/11/03 06:10:50;;;;;;;7.88;2.92;;;;;;;;;;4976230;28;20500;-83
2022/11/03 06:13:36;;;;;;;6.88;3.38;;;;;;;;;;4978912;28;20040;-81
2022/11/03 06:16:05;;;;;;;8.10;3.33;;;;;;;;;;4972788;28;20073;-82
2022/11/03 06:18:35;;;;;;;6.15;3.30;;;;;;;;;;4995123;28;20894;-82
2022/11/03 06:21:12;;;;;;;7.95;3.08;;;;;;;;;;4980124;28;20042;-83
2022/11/03 06:23:39;;;;;;;7.63;3.33;;;;;;;;;;4980430;28;20086;-82
2022/11/03 06:26:18;;;;;;;7.50;3.67;;;;;;;;;;4967113;28;20571;-83
2022/11/03 06:28:43;;;;;;;8.45;3.63;;;;;;;;;;4968685;28;20030;-83
2022/11/03 06:31:29;;;;;;;8.80;3.38;;;;;;;;;;4987167;28;20068;-82
2022/11/03 06:33:56;;;;;;;7.38;3.55;;;;;;;;;;4966425;28;20033;-82
2022/11/03 06:36:26;;;;;;;8.33;3.47;;;;;;;;;;4969965;28;20042;-82
2022/11/03 06:38:56;;;;;;;8.00;3.20;;;;;;;;;;4962452;28;20037;-83
2022/11/03 06:41:24;;;;;;;7.07;3.53;;;;;;;;;;4986123;28;20073;-81
2022/11/03 06:43:50;;;;;;;6.43;3.20;;;;;;;;;;4993655;28;20031;-84
2022/11/03 06:46:22;;;;;;;8.52;4.03;;;;;;;;;;4971525;28;20092;-81
2022/11/03 06:48:48;;;;;;;6.68;3.33;;;;;;;;;;4963363;28;20486;-83
2022/11/03 06:51:19;;;;;;;7.38;3.22;;;;;;;;;;4967853;28;20030;-83
2022/11/03 06:53:45;;;;;;;7.38;3.28;;;;;;;;;;4991070;28;20064;-82
2022/11/03 06:56:15;;;;;;;8.00;3.72;;;;;;;;;;4966528;28;20042;-82
2022/11/03 06:58:40;;;;;;;8.82;3.53;;;;;;;;;;4977391;28;20050;-83
2022/11/03 07:01:14;;;;;;;8.73;3.35;;;;;;;;;;4956951;28;20042;-83
2022/11/03 07:03:40;;;;;;;6.63;3.13;;;;;;;;;;4975859;28;20074;-82
2022/11/03 07:06:26;;;;;;;5.70;3.63;;;;;;;;;;4965099;28;20067;-83
2022/11/03 07:08:59;;;;;;;6.80;3.50;;;;;;;;;;4952781;28;20121;-88
2022/11/03 07:11:29;;;;;;;7.47;3.20;;;;;;;;;;4987149;28;20508;-88
2022/11/03 07:14:03;;;;;;;7.63;3.40;;;;;;;;;;4980034;28;20034;-85
2022/11/03 07:16:34;;;;;;;11.07;4.05;;;;;;;;;;4954951;28;20520;-85
2022/11/03 07:19:05;;;;;;;7.35;3.40;;;;;;;;;;4970167;28;20039;-85
2022/11/03 07:21:37;;;;;;;7.57;3.90;;;;;;;;;;4983851;28;20470;-85
2022/11/03 07:24:15;;;;;;;8.93;3.63;;;;;;;;;;4961192;28;20460;-84
2022/11/03 07:26:40;;;;;;;6.90;3.83;;;;;;;;;;4963892;28;20030;-83
2022/11/03 07:29:11;;;;;;;6.13;3.03;;;;;;;;;;4965690;28;20038;-84
2022/11/03 07:31:36;;;;;;;5.65;2.90;;;;;;;;;;4993783;28;20068;-83
2022/11/03 07:34:04;;;;;;;6.35;3.17;;;;;;;;;;4978785;28;20057;-86
2022/11/03 07:36:30;;;;;;;;;;;;;;;;;;4978546;28;20070;-83
2022/11/03 07:38:55;;;;;;;7.22;2.88;;;;;;;;;;4976601;28;19961;-82
2022/11/03 07:41:26;;;;;;;5.20;2.63;;;;;;;;;;4968758;28;20779;-85
2022/11/03 07:43:58;;;;;;;6.35;2.60;;;;;;;;;;4964151;28;20042;-83
2022/11/03 07:46:24;;;;;;;5.68;2.60;;;;;;;;;;4956532;28;20093;-85
2022/11/03 07:48:53;;;;;;;6.50;3.15;;;;;;;;;;4966463;28;20063;-85
2022/11/03 07:51:30;;;;;;;6.47;2.95;;;;;;;;;;4993400;28;20449;-84
2022/11/03 07:53:56;;;;;;;7.25;2.83;;;;;;;;;;4979796;28;20096;-86
2022/11/03 07:56:26;;;;;;;8.35;2.60;;;;;;;;;;4977582;28;20042;-84
2022/11/03 07:59:06;;;;;;;5.80;2.88;;;;;;;;;;4982902;28;20408;-84
2022/11/03 08:01:36;;;;;;;4.63;2.10;;;;;;;;;;4967844;28;20053;-83
2022/11/03 08:04:11;;;;;;;3.85;2.00;;;;;;;;;;4971130;28;20461;-84
2022/11/03 08:06:36;;;;;;;5.00;2.30;;;;;;;;;;4961611;28;20034;-84
2022/11/03 08:09:02;;;;;;;3.95;2.05;;;;;;;;;;4979859;28;20507;-84
2022/11/03 08:11:27;;;;;;;5.43;2.03;;;;;;;;;;4980579;28;20041;-85
2022/11/03 08:13:52;;;;;;;6.68;2.20;;;;;;;;;;4969734;28;20975;-84
2022/11/03 08:16:18;;;;;;;4.88;2.05;;;;;;;;;;4996039;28;20038;-82
2022/11/03 08:18:44;;;;;;;5.70;2.30;;;;;;;;;;4987186;28;20397;-84
2022/11/03 08:21:12;;;;;;;5.38;2.25;;;;;;;;;;4981369;28;20037;-84
2022/11/03 08:23:38;;;;;;;6.43;2.17;;;;;;;;;;4991480;28;20469;-84
2022/11/03 08:26:04;;;;;;;5.70;1.60;;;;;;;;;;4982855;28;20029;-84
2022/11/03 08:28:32;;;;;;;5.38;1.95;;;;;;;;;;4980149;28;20132;-86
2022/11/03 08:31:03;;;;;;;5.07;2.17;;;;;;;;;;4995856;28;20041;-85
2022/11/03 08:33:31;;;;;;;4.95;1.83;;;;;;;;;;4996623;28;20030;-84
2022/11/03 08:35:56;;;;;;;4.53;1.85;;;;;;;;;;4984757;28;20057;-87
2022/11/03 08:38:21;;;;;;;6.53;2.63;;;;;;;;;;4978505;28;20038;-85
2022/11/03 08:40:47;;;;;;;6.80;2.40;;;;;;;;;;4970388;28;20600;-90
2022/11/03 08:43:12;;;;;;;6.75;2.22;;;;;;;;;;4969495;28;20034;-88
2022/11/03 08:45:37;;;;;;;4.80;2.25;;;;;;;;;;4979909;28;20064;-88
2022/11/03 08:48:03;;;;;;;5.82;2.53;;;;;;;;;;4971318;28;20030;-88
2022/11/03 08:50:29;;;;;;;7.45;2.78;;;;;;;;;;4987740;28;20022;-86
2022/11/03 08:52:56;;;;;;;5.00;1.90;;;;;;;;;;4973737;28;20042;-86
2022/11/03 08:55:21;;;;;;;5.28;2.10;;;;;;;;;;4992756;28;20038;-86
2022/11/03 08:57:46;;;;;;;5.20;2.10;;;;;;;;;;4977826;28;20097;-85
2022/11/03 09:00:13;;;;;;;6.75;2.17;;;;;;;;;;4987730;28;20033;-86
2022/11/03 09:02:38;;;;;;;5.25;2.00;;;;;;;;;;4972685;28;20112;-87
2022/11/03 09:05:04;;;;;;;4.97;2.10;;;;;;;;;;4963128;28;20058;-85
2022/11/03 09:07:30;;;;;;;4.28;1.90;;;;;;;;;;4988417;28;20034;-86
2022/11/03 09:09:56;;;;;;;7.80;1.63;;;;;;;;;;4973333;28;20034;-87
2022/11/03 09:12:21;;;;;;;5.93;1.73;;;;;;;;;;4964452;28;20057;-86
2022/11/03 09:14:49;;;;;;;5.10;1.95;;;;;;;;;;4980259;28;20043;-86
2022/11/03 09:17:14;;;;;;;5.25;1.88;;;;;;;;;;4989335;28;20037;-86
2022/11/03 09:19:39;;;;;;;5.00;2.00;;;;;;;;;;4971100;28;20473;-87
2022/11/03 09:22:05;;;;;;;5.13;2.22;;;;;;;;;;4978671;28;20030;-90
2022/11/03 09:24:30;;;;;;;4.97;1.75;;;;;;;;;;4998708;28;20034;-86
2022/11/03 09:26:55;;;;;;;5.75;1.70;;;;;;;;;;4996808;28;20463;-87
2022/11/03 09:29:21;;;;;;;4.80;1.73;;;;;;;;;;4966629;28;20073;-86
2022/11/03 09:31:47;;;;;;;7.05;1.58;;;;;;;;;;4983736;28;20088;-86
2022/11/03 09:34:12;;;;;;;5.22;1.83;;;;;;;;;;4989995;28;20080;-86
2022/11/03 09:36:38;;;;;;;4.90;1.60;;;;;;;;;;4962379;28;20118;-86
2022/11/03 09:39:03;;;;;;;5.07;1.73;;;;;;;;;;4967431;28;20441;-86
2022/11/03 09:41:29;;;;;;;5.43;1.90;;;;;;;;;;4962471;28;21514;-86
2022/11/03 09:43:59;;;;;;;4.15;1.58;;;;;;;;;;4969298;28;20097;-85
2022/11/03 09:46:26;;;;;;;5.47;1.70;;;;;;;;;;4968968;28;20875;-86
2022/11/03 09:48:52;;;;;;;6.80;1.90;;;;;;;;;;4971669;28;20038;-86
2022/11/03 09:51:19;;;;;;;5.33;1.70;;;;;;;;;;4987568;28;20038;-85
2022/11/03 09:53:45;;;;;;;4.95;1.88;;;;;;;;;;4967369;28;20041;-87
2022/11/03 09:56:10;;;;;;;3.90;1.35;;;;;;;;;;4971511;28;20068;-86
2022/11/03 09:58:36;;;;;;;5.45;1.52;;;;;;;;;;4950230;28;20042;-83
2022/11/03 10:01:02;;;;;;;2.95;1.40;;;;;;;;;;4966614;28;20145;-84
2022/11/03 10:03:27;;;;;;;5.13;1.50;;;;;;;;;;4971637;28;20072;-85
2022/11/03 10:05:53;;;;;;;4.60;1.48;;;;;;;;;;4980145;28;20046;-85
2022/11/03 10:08:26;;;;;;;3.72;1.38;;;;;;;;;;4977321;28;20046;-85
2022/11/03 10:10:53;;;;;;;4.13;1.27;;;;;;;;;;4965758;28;20039;-84
2022/11/03 10:13:33;;;;;;;4.50;1.60;;;;;;;;;;4982376;28;20149;-86
2022/11/03 10:16:00;;;;;;;7.50;1.50;;;;;;;;;;4985686;28;20467;-85
2022/11/03 10:18:26;;;;;;;2.90;1.20;;;;;;;;;;4985896;28;20084;-85
2022/11/03 10:20:52;;;;;;;4.53;1.27;;;;;;;;;;4970390;28;20069;-85
2022/11/03 10:23:17;;;;;;;3.90;1.20;;;;;;;;;;4985860;28;20524;-85
2022/11/03 10:25:44;;;;;;;4.60;1.45;;;;;;;;;;4966428;28;20110;-85
2022/11/03 10:28:27;;;;;;;4.43;1.30;;;;;;;;;;4994652;28;20441;-85
2022/11/03 10:31:01;;;;;;;4.97;1.40;;;;;;;;;;4986130;28;20038;-86
2022/11/03 10:33:32;;;;;;;4.47;1.40;;;;;;;;;;4971700;28;20037;-85
2022/11/03 10:36:00;;;;;;;4.50;1.45;;;;;;;;;;4997317;28;20113;-85
2022/11/03 10:38:32;;;;;;;2.95;1.15;;;;;;;;;;4981381;28;20101;-86
2022/11/03 10:41:13;;;;;;;3.05;1.10;;;;;;;;;;4972234;28;20041;-84
2022/11/03 10:43:40;;;;;;;5.05;1.30;;;;;;;;;;4978741;28;20440;-83
2022/11/03 10:46:18;;;;;;;3.20;1.20;;;;;;;;;;4962358;28;20520;-84
2022/11/03 10:48:43;;;;;;;5.00;1.35;;;;;;;;;;4985224;28;20092;-84
2022/11/03 10:51:11;;;;;;;4.85;1.20;;;;;;;;;;4964649;28;20034;-84
2022/11/03 10:53:36;;;;;;;4.55;1.33;;;;;;;;;;4962910;28;20060;-85
2022/11/03 10:56:02;;;;;;;3.60;1.20;;;;;;;;;;4984065;28;20050;-84
2022/11/03 10:58:27;;;;;;;2.67;1.00;;;;;;;;;;4983414;28;20141;-84
2022/11/03 11:00:52;;;;;;;3.25;1.17;;;;;;;;;;4962621;28;20121;-84
2022/11/03 11:03:18;;;;;;;3.72;1.08;;;;;;;;;;4975903;28;20116;-85
2022/11/03 11:05:45;;;;;;;4.10;1.48;;;;;;;;;;4981862;28;20030;-84
2022/11/03 11:08:13;;;;;;;4.20;1.10;;;;;;;;;;4980970;28;20040;-84
2022/11/03 11:10:42;;;;;;;3.65;1.25;;;;;;;;;;4970802;28;20277;-84
2022/11/03 11:13:14;;;;;;;3.30;1.00;;;;;;;;;;4959305;28;20042;-84
2022/11/03 11:15:44;;;;;;;4.38;1.10;;;;;;;;;;4958964;28;20457;-84
2022/11/03 11:18:30;;;;;;;4.70;1.30;;;;;;;;;;4960715;28;20054;-84
2022/11/03 11:20:59;;;;;;;3.33;1.27;;;;;;;;;;4985153;28;20034;-84
2022/11/03 11:23:27;;;;;;;4.25;1.77;;;;;;;;;;4975360;28;20077;-86
2022/11/03 11:26:07;;;;;;;3.08;1.10;;;;;;;;;;4976463;28;20037;-84
2022/11/03 11:28:33;;;;;;;2.97;1.23;;;;;;;;;;4977322;28;20535;-84
2022/11/03 11:34:22;;;;;;;2.50;0.90;;;;;;;;;;4994707;28;20093;-84
2022/11/03 11:36:53;;;;;;;4.35;1.48;;;;;;;;;;4976507;28;20045;-84
2022/11/03 11:39:21;;;;;;;5.03;1.70;;;;;;;;;;4975377;28;20046;-85
2022/11/03 11:42:06;;;;;;;4.93;1.48;;;;;;;;;;4974023;28;20034;-84
2022/11/03 11:44:53;;;;;;;5.22;1.30;;;;;;;;;;4975267;28;20031;-85
2022/11/03 11:47:30;;;;;;;5.47;1.50;;;;;;;;;;4995605;28;20081;-85
2022/11/03 11:50:08;;;;;;;3.83;1.17;;;;;;;;;;4993964;28;20096;-85
2022/11/03 11:52:48;;;;;;;;;;;;;;;;;;4958644;28;20094;-87
2022/11/03 11:55:23;;;;;;;3.67;1.40;;;;;;;;;;4973671;28;19918;-84
2022/11/03 11:57:48;;;;;;;4.78;1.40;;;;;;;;;;4990149;28;20042;-84
2022/11/03 12:00:18;;;;;;;3.85;1.33;;;;;;;;;;4965736;28;20041;-84
2022/11/03 12:02:45;;;;;;;3.25;1.17;;;;;;;;;;4977530;28;20575;-85
2022/11/03 12:05:19;;;;;;;4.88;1.60;;;;;;;;;;4993653;28;20034;-85
2022/11/03 12:07:44;;;;;;;4.07;1.33;;;;;;;;;;4974336;28;20045;-85
2022/11/03 12:10:16;;;;;;;6.30;1.48;;;;;;;;;;4964530;28;20510;-85
2022/11/03 12:12:42;;;;;;;4.43;1.63;;;;;;;;;;4982694;28;20042;-82
2022/11/03 12:15:45;;;;;;;3.55;1.38;;;;;;;;;;4976700;28;20050;-86
2022/11/03 12:18:42;;;;;;;4.60;1.35;;;;;;;;;;4980159;28;20076;-86
2022/11/03 12:21:09;;;;;;;4.88;1.70;;;;;;;;;;4973879;28;20161;-85
2022/11/03 12:23:45;;;;;;;3.88;1.50;;;;;;;;;;4976086;28;20045;-85
2022/11/03 12:26:25;;;;;;;4.53;1.73;;;;;;;;;;4978773;28;20026;-86
2022/11/03 12:28:51;;;;;;;4.95;1.75;;;;;;;;;;4985516;28;20038;-86
2022/11/03 12:31:16;;;;;;;4.13;1.33;;;;;;;;;;4961683;28;20029;-85
2022/11/03 12:33:41;;;;;;;5.00;1.30;;;;;;;;;;4970119;28;20026;-85
2022/11/03 12:36:07;;;;;;;3.50;1.33;;;;;;;;;;4976930;28;20031;-84
2022/11/03 12:38:32;;;;;;;2.65;1.10;;;;;;;;;;4968151;28;20038;-86
2022/11/03 12:41:19;;;;;;;3.92;1.42;;;;;;;;;;4977576;28;20052;-84
2022/11/03 12:43:43;;;;;;;4.70;1.02;;;;;;;;;;4977516;28;20034;-84
2022/11/03 12:46:11;;;;;;;3.40;1.13;;;;;;;;;;4983499;28;20512;-84
2022/11/03 12:48:42;;;;;;;3.60;1.08;;;;;;;;;;4997879;28;20041;-85
2022/11/03 12:51:08;;;;;;;5.53;1.10;;;;;;;;;;4965280;28;20122;-84
2022/11/03 12:53:33;;;;;;;4.47;1.27;;;;;;;;;;4981729;28;20040;-84
2022/11/03 12:55:59;;;;;;;3.58;1.02;;;;;;;;;;4969244;28;20497;-86
2022/11/03 12:58:24;;;;;;;4.03;1.23;;;;;;;;;;4977396;28;20555;-85
2022/11/03 13:00:49;;;;;;;4.07;1.10;;;;;;;;;;4979597;28;20057;-86
2022/11/03 13:03:17;;;;;;;4.43;1.20;;;;;;;;;;4949357;28;20042;-86
2022/11/03 13:05:43;;;;;;;2.58;1.10;;;;;;;;;;4972573;28;20089;-86
2022/11/03 13:08:11;;;;;;;5.07;1.60;;;;;;;;;;4969938;28;20042;-86
2022/11/03 13:10:36;;;;;;;5.47;1.63;;;;;;;;;;4988165;28;20471;-86
2022/11/03 13:13:02;;;;;;;5.40;1.85;;;;;;;;;;4996457;28;20132;-87
2022/11/03 13:15:27;;;;;;;3.10;1.10;;;;;;;;;;4949883;28;20397;-85
2022/11/03 13:17:53;;;;;;;3.80;1.08;;;;;;;;;;4970362;28;20486;-85
2022/11/03 13:20:18;;;;;;;3.40;1.00;;;;;;;;;;4982692;28;20041;-88
2022/11/03 13:22:44;;;;;;;4.82;1.38;;;;;;;;;;4955928;28;20481;-86
2022/11/03 13:25:09;;;;;;;3.53;1.05;;;;;;;;;;4972415;28;20473;-86
2022/11/03 13:27:35;;;;;;;3.20;1.00;;;;;;;;;;4972085;28;20038;-85
2022/11/03 13:30:00;;;;;;;4.70;1.40;;;;;;;;;;4988591;28;20042;-86
2022/11/03 13:32:26;;;;;;;3.92;1.23;;;;;;;;;;4960568;28;20034;-85
2022/11/03 13:34:51;;;;;;;3.40;1.13;;;;;;;;;;4980406;28;20660;-86
2022/11/03 13:37:16;;;;;;;5.38;1.30;;;;;;;;;;4972028;28;20033;-86
2022/11/03 13:39:42;;;;;;;4.72;1.13;;;;;;;;;;4970959;28;20046;-87
2022/11/03 13:42:07;;;;;;;3.78;1.20;;;;;;;;;;4979051;28;20133;-85
2022/11/03 13:44:33;;;;;;;3.85;1.23;;;;;;;;;;4970340;28;20045;-86
2022/11/03 13:46:58;;;;;;;5.22;1.60;;;;;;;;;;4978269;28;20038;-86
2022/11/03 13:49:24;;;;;;;4.47;1.27;;;;;;;;;;4977034;28;20061;-87
2022/11/03 13:51:49;;;;;;;2.70;1.10;;;;;;;;;;4964912;28;20026;-86
2022/11/03 13:54:17;;;;;;;3.58;1.20;;;;;;;;;;4992261;28;20031;-86
2022/11/03 13:56:42;;;;;;;4.47;1.38;;;;;;;;;;4989901;28;20042;-86
2022/11/03 13:59:07;;;;;;;5.45;1.10;;;;;;;;;;4978730;28;20483;-86
2022/11/03 14:01:33;;;;;;;4.63;1.42;;;;;;;;;;4968504;28;20068;-87
2022/11/03 14:03:58;;;;;;;3.83;1.10;;;;;;;;;;4980234;28;20043;-86
2022/11/03 14:06:23;;;;;;;5.40;1.40;;;;;;;;;;4978472;28;20038;-84
2022/11/03 14:08:48;;;;;;;5.88;1.20;;;;;;;;;;4976955;28;20034;-85
2022/11/03 14:13:58;;;;;;;2.95;1.17;;;;;;;;;;4979954;28;20049;-85
2022/11/03 14:16:23;;;;;;;4.35;1.20;;;;;;;;;;4963417;28;20058;-84
2022/11/03 14:18:48;;;;;;;5.03;1.38;;;;;;;;;;4988567;28;20386;-86
2022/11/03 14:21:16;;;;;;;4.93;1.20;;;;;;;;;;4986090;28;20121;-85
2022/11/03 14:23:41;;;;;;;2.58;1.00;;;;;;;;;;4965739;28;20121;-86
2022/11/03 14:26:07;;;;;;;2.65;1.02;;;;;;;;;;4979561;28;20621;-86
2022/11/03 14:28:32;;;;;;;4.50;1.17;;;;;;;;;;4969637;28;20034;-85
2022/11/03 14:30:58;;;;;;;5.05;1.50;;;;;;;;;;4997301;28;20160;-86
2022/11/03 14:33:25;;;;;;;5.00;1.20;;;;;;;;;;4964473;28;20042;-85
2022/11/03 14:35:50;;;;;;;5.25;1.65;;;;;;;;;;4976990;28;20127;-85
2022/11/03 14:38:16;;;;;;;4.00;1.13;;;;;;;;;;4972090;28;20050;-84
2022/11/03 14:43:25;;;;;;;6.80;1.90;;;;;;;;;;4982009;28;20049;-84
2022/11/03 14:45:51;;;;;;;4.70;1.27;;;;;;;;;;4977893;28;20034;-85
2022/11/03 14:48:16;;;;;;;4.65;1.52;;;;;;;;;;4963779;28;20378;-86
2022/11/03 14:50:41;;;;;;;5.13;1.55;;;;;;;;;;4970420;28;20044;-85
2022/11/03 14:53:07;;;;;;;3.97;1.42;;;;;;;;;;4972566;28;20120;-86
2022/11/03 14:55:32;;;;;;;5.30;1.50;;;;;;;;;;4968925;28;20112;-83
2022/11/03 14:57:57;;;;;;;5.93;1.63;;;;;;;;;;4970363;28;20043;-85
2022/11/03 15:00:25;;;;;;;5.38;1.58;;;;;;;;;;4979109;28;20096;-86
2022/11/03 15:02:50;;;;;;;;;;;;;;;;;;4980429;28;20065;-85
2022/11/03 15:08:00;;;;;;;3.95;1.52;;;;;;;;;;4981205;28;20177;-85
2022/11/03 15:10:25;;;;;;;6.70;2.15;;;;;;;;;;4986775;28;20125;-86
2022/11/03 15:12:50;;;;;;;7.28;2.08;;;;;;;;;;4979077;28;20034;-85
2022/11/03 15:15:16;;;;;;;6.25;2.47;;;;;;;;;;4987686;28;20634;-85
2022/11/03 15:17:41;;;;;;;6.03;2.40;;;;;;;;;;4962892;28;20527;-86
2022/11/03 15:20:07;;;;;;;5.22;1.80;;;;;;;;;;4969104;28;20391;-85
2022/11/03 15:22:33;;;;;;;5.78;2.22;;;;;;;;;;4995574;28;20064;-86
2022/11/03 15:24:58;;;;;;;5.00;1.70;;;;;;;;;;4981102;28;20456;-85
2022/11/03 15:27:26;;;;;;;5.65;2.13;;;;;;;;;;4967266;28;20046;-86
2022/11/03 15:29:51;;;;;;;6.07;1.75;;;;;;;;;;4981352;28;20046;-84
2022/11/03 15:32:17;;;;;;;5.15;1.70;;;;;;;;;;4986930;28;20038;-84